Time;durP1;ratioP1;P1;durP2;ratioP2;P2;SDS_P1;SDS_P2;PMS_P1;PMS_P2;Temp;Humidity;BMP_temperature;BMP_pressure;BME280_temperature;BME280_humidity;BME280_pressure;Samples;Min_cycle;Max_cycle;Signal;HPM_P1;HPM_P2
2023/07/01 00:00:59;;;;;;;102.57;97.85;;;;;;;26.21;31.75;100659.97;5092846;28;20052;-71
2023/07/01 00:03:24;;;;;;;103.03;98.28;;;;;;;26.19;32.14;100653.97;5093304;28;20040;-72
2023/07/01 00:05:50;;;;;;;104.03;99.43;;;;;;;26.17;32.07;100654.31;5092996;28;20359;-71
2023/07/01 00:08:15;;;;;;;101.05;96.35;;;;;;;26.15;32.07;100647.53;5092946;28;20043;-72
2023/07/01 00:10:41;;;;;;;102.25;97.65;;;;;;;26.13;32.38;100647.88;5092972;28;20062;-71
2023/07/01 00:13:06;;;;;;;104.82;100.07;;;;;;;26.10;32.23;100645.81;5092580;28;20039;-71
2023/07/01 00:15:33;;;;;;;102.57;98.05;;;;;;;26.08;32.06;100642.56;5093192;28;20111;-71
2023/07/01 00:17:59;;;;;;;102.22;97.70;;;;;;;26.06;32.16;100640.16;5092524;28;20024;-72
2023/07/01 00:20:26;;;;;;;108.05;103.07;;;;;;;26.04;32.10;100634.19;5074756;28;20388;-71
2023/07/01 00:22:53;;;;;;;102.25;97.45;;;;;;;26.03;32.07;100637.28;5076310;28;20173;-71
2023/07/01 00:25:18;;;;;;;102.80;98.20;;;;;;;26.01;32.26;100639.63;5095900;28;20032;-72
2023/07/01 00:27:43;;;;;;;104.15;99.15;;;;;;;25.99;32.22;100639.16;5096160;28;20476;-72
2023/07/01 00:30:09;;;;;;;102.35;97.25;;;;;;;25.97;32.27;100636.72;5095026;28;20032;-71
2023/07/01 00:32:35;;;;;;;102.30;97.80;;;;;;;25.96;32.29;100634.31;5096065;28;20043;-71
2023/07/01 00:35:00;;;;;;;101.80;97.20;;;;;;;25.93;32.57;100629.47;5096572;28;20115;-71
2023/07/01 00:37:27;;;;;;;103.65;99.05;;;;;;;25.91;32.79;100632.59;5078010;28;20056;-71
2023/07/01 00:39:53;;;;;;;99.43;95.05;;;;;;;25.89;32.64;100626.59;5096743;28;20040;-72
2023/07/01 00:42:18;;;;;;;101.97;97.53;;;;;;;25.87;32.86;100624.19;5096574;28;20039;-71
2023/07/01 00:44:43;;;;;;;97.72;93.22;;;;;;;25.85;33.02;100620.94;5096090;28;20445;-71
2023/07/01 00:47:09;;;;;;;100.88;96.38;;;;;;;25.84;32.72;100608.25;5096001;28;20032;-71
2023/07/01 00:49:34;;;;;;;100.68;96.10;;;;;;;25.82;32.91;100609.75;5095960;28;20384;-71
2023/07/01 00:52:00;;;;;;;105.15;99.95;;;;;;;25.81;33.10;100599.84;5096466;28;20452;-70
2023/07/01 00:54:26;;;;;;;102.88;98.10;;;;;;;25.78;33.08;100598.59;5096168;28;20050;-71
2023/07/01 00:56:52;;;;;;;101.85;97.00;;;;;;;25.78;33.46;100597.75;5095819;28;20119;-70
2023/07/01 00:59:17;;;;;;;105.40;100.50;;;;;;;25.77;33.24;100598.94;5095794;28;20134;-72
2023/07/01 01:01:48;;;;;;;101.00;96.30;;;;;;;25.74;33.37;100599.63;5096135;28;20040;-72
2023/07/01 01:04:20;;;;;;;100.97;96.28;;;;;;;25.72;33.48;100588.09;5096200;28;20032;-72
2023/07/01 01:07:03;;;;;;;102.22;97.75;;;;;;;25.69;33.26;100582.09;5095766;28;20081;-72
2023/07/01 01:09:45;;;;;;;97.68;93.32;;;;;;;25.66;33.75;100593.06;5096157;28;20036;-72
2023/07/01 01:12:12;;;;;;;94.82;90.43;;;;;;;25.65;33.91;100591.44;5095604;28;20039;-72
2023/07/01 01:14:39;;;;;;;97.43;92.25;;;;;;;25.63;33.42;100582.72;5095482;28;20487;-72
2023/07/01 01:17:13;;;;;;;95.20;91.00;;;;;;;25.61;34.02;100585.03;5095604;28;20037;-72
2023/07/01 01:19:51;;;;;;;92.97;88.78;;;;;;;25.59;34.03;100581.78;5095960;28;20036;-72
2023/07/01 01:22:22;;;;;;;95.40;91.00;;;;;;;25.57;33.91;100573.84;5094767;28;20044;-72
2023/07/01 01:24:53;;;;;;;93.10;88.78;;;;;;;25.55;34.12;100569.81;5095581;28;20103;-72
2023/07/01 01:27:23;;;;;;;94.05;89.55;;;;;;;25.53;34.31;100572.94;5095166;28;20372;-72
2023/07/01 01:29:49;;;;;;;94.75;90.35;;;;;;;25.52;34.02;100564.97;5095316;28;20031;-72
2023/07/01 01:32:15;;;;;;;95.45;91.25;;;;;;;25.51;34.18;100563.38;5095178;28;20107;-72
2023/07/01 01:34:40;;;;;;;96.20;91.75;;;;;;;25.48;34.70;100559.34;5094818;28;20035;-72
2023/07/01 01:37:12;;;;;;;96.35;91.85;;;;;;;25.45;34.39;100552.56;5095341;28;20032;-72
2023/07/01 01:39:44;;;;;;;98.82;94.47;;;;;;;25.45;34.82;100543.44;5093809;28;20119;-72
2023/07/01 01:42:30;;;;;;;96.78;92.18;;;;;;;25.42;34.91;100549.66;5095477;28;20028;-74
2023/07/01 01:44:57;;;;;;;93.05;89.03;;;;;;;25.40;35.00;100538.97;5095018;28;20111;-72
2023/07/01 01:47:28;;;;;;;97.60;93.30;;;;;;;25.39;34.92;100542.06;5094887;28;20085;-72
2023/07/01 01:49:58;;;;;;;95.15;90.75;;;;;;;25.36;34.75;100540.81;5094818;28;20035;-72
2023/07/01 01:52:24;;;;;;;93.97;89.88;;;;;;;25.35;34.99;100535.63;5095029;28;20080;-70
2023/07/01 01:54:52;;;;;;;95.35;90.78;;;;;;;25.33;35.25;100530.44;5093274;28;20028;-71
2023/07/01 01:57:18;;;;;;;98.03;93.47;;;;;;;25.31;35.40;100537.47;5093955;28;20109;-70
2023/07/01 01:59:44;;;;;;;92.47;88.22;;;;;;;25.29;35.04;100531.47;5094894;28;20052;-70
2023/07/01 02:02:10;;;;;;;94.93;90.70;;;;;;;25.27;35.38;100518.00;5094614;28;20111;-71
2023/07/01 02:04:36;;;;;;;92.90;88.60;;;;;;;25.26;35.78;100513.63;5093553;28;20063;-72
2023/07/01 02:07:01;;;;;;;94.15;89.95;;;;;;;25.24;35.70;100511.22;5094477;28;20088;-71
2023/07/01 02:09:28;;;;;;;97.95;93.68;;;;;;;25.23;35.41;100508.81;5093661;28;20036;-71
2023/07/01 02:11:54;;;;;;;96.10;91.82;;;;;;;25.21;35.71;100497.28;5094399;28;20166;-71
2023/07/01 02:14:20;;;;;;;96.97;92.57;;;;;;;25.19;35.82;100503.16;5094269;28;20066;-70
2023/07/01 02:16:45;;;;;;;93.35;89.20;;;;;;;25.18;36.00;100498.78;5094260;28;20064;-71
2023/07/01 02:19:11;;;;;;;95.28;91.10;;;;;;;25.16;36.11;100489.22;5093098;28;20024;-71
2023/07/01 02:21:36;;;;;;;94.95;90.55;;;;;;;25.14;36.32;100486.78;5094128;28;20170;-71
2023/07/01 02:24:02;;;;;;;93.60;89.30;;;;;;;25.13;36.35;100487.16;5093052;28;20028;-71
2023/07/01 02:26:27;;;;;;;94.85;90.15;;;;;;;25.12;36.48;100482.75;5094920;28;20028;-71
2023/07/01 02:28:52;;;;;;;90.03;86.10;;;;;;;25.08;36.50;100487.38;5094214;28;20032;-71
2023/07/01 02:31:18;;;;;;;96.85;92.57;;;;;;;25.07;36.31;100481.03;5094474;28;20379;-71
2023/07/01 02:33:50;;;;;;;92.20;88.20;;;;;;;25.05;36.18;100481.38;5092810;28;20039;-71
2023/07/01 02:36:15;;;;;;;95.22;91.03;;;;;;;25.03;36.30;100489.22;5093970;28;20032;-73
2023/07/01 02:38:41;;;;;;;91.85;87.80;;;;;;;25.01;36.66;100480.47;5093943;28;20036;-71
2023/07/01 02:41:06;;;;;;;94.32;89.93;;;;;;;25.00;36.79;100473.34;5094016;28;20105;-71
2023/07/01 02:43:32;;;;;;;92.78;88.57;;;;;;;24.98;36.87;100475.63;5093560;28;20032;-71
2023/07/01 02:45:57;;;;;;;92.07;87.95;;;;;;;24.95;36.62;100479.09;5093240;28;20101;-71
2023/07/01 02:48:23;;;;;;;90.70;86.65;;;;;;;24.94;36.80;100474.72;5092827;28;20036;-71
2023/07/01 02:50:48;;;;;;;89.95;85.90;;;;;;;24.93;37.06;100475.06;5093801;28;20038;-71
2023/07/01 02:53:15;;;;;;;92.53;88.53;;;;;;;24.91;36.61;100458.81;5093763;28;20031;-70
2023/07/01 02:55:41;;;;;;;92.20;88.13;;;;;;;24.89;36.75;100469.41;5093336;28;20100;-71
2023/07/01 02:58:06;;;;;;;94.20;90.05;;;;;;;24.88;37.04;100467.81;5093641;28;20410;-71
2023/07/01 03:00:31;;;;;;;93.20;89.00;;;;;;;24.86;37.13;100455.50;5092225;28;20056;-72
2023/07/01 03:03:06;;;;;;;90.45;86.55;;;;;;;24.84;37.39;100455.84;5093630;28;20032;-71
2023/07/01 03:05:35;;;;;;;94.97;90.78;;;;;;;24.82;36.95;100456.19;5076634;28;20063;-71
2023/07/01 03:08:01;;;;;;;92.07;88.03;;;;;;;24.80;37.47;100449.41;5093665;28;20059;-71
2023/07/01 03:10:26;;;;;;;92.25;88.15;;;;;;;24.79;36.99;100450.53;5093492;28;20109;-71
2023/07/01 03:12:52;;;;;;;91.43;87.32;;;;;;;24.77;37.48;100448.16;5092131;28;20085;-71
2023/07/01 03:15:18;;;;;;;90.53;86.53;;;;;;;24.75;36.98;100446.88;5092074;28;20508;-73
2023/07/01 03:17:43;;;;;;;93.35;88.93;;;;;;;24.74;37.11;100445.25;5093437;28;20032;-71
2023/07/01 03:20:22;;;;;;;93.20;89.00;;;;;;;24.72;37.15;100442.03;5093866;28;20038;-73
2023/07/01 03:22:56;;;;;;;90.35;86.25;;;;;;;24.71;37.77;100443.19;5095131;28;20123;-71
2023/07/01 03:25:22;;;;;;;89.72;85.75;;;;;;;24.70;37.35;100449.88;5093726;28;20032;-71
2023/07/01 03:27:47;;;;;;;89.78;85.80;;;;;;;24.68;37.84;100441.13;5093394;28;20039;-72
2023/07/01 03:30:14;;;;;;;90.97;86.75;;;;;;;24.66;38.01;100437.91;5093680;28;20039;-71
2023/07/01 03:32:41;;;;;;;89.72;85.80;;;;;;;24.63;37.81;100436.63;5093506;28;20439;-72
2023/07/01 03:35:07;;;;;;;92.63;88.47;;;;;;;24.60;37.90;100434.56;5093186;28;20064;-72
2023/07/01 03:37:32;;;;;;;92.47;88.32;;;;;;;24.60;37.79;100434.56;5092040;28;20058;-72
2023/07/01 03:39:57;;;;;;;93.50;89.40;;;;;;;24.57;38.03;100444.34;5093383;28;20452;-73
2023/07/01 03:42:23;;;;;;;89.70;85.63;;;;;;;24.57;37.98;100432.50;5093232;28;20573;-73
2023/07/01 03:44:48;;;;;;;92.05;87.93;;;;;;;24.56;38.32;100426.16;5093291;28;20032;-72
2023/07/01 03:47:14;;;;;;;89.40;85.55;;;;;;;24.54;38.11;100424.88;5092950;28;20059;-73
2023/07/01 03:49:39;;;;;;;93.88;89.68;;;;;;;24.53;38.09;100420.53;5091972;28;20130;-72
2023/07/01 03:52:05;;;;;;;89.82;85.90;;;;;;;24.51;38.63;100414.53;5093704;28;20051;-72
2023/07/01 03:54:30;;;;;;;89.32;85.25;;;;;;;24.49;38.57;100420.38;5091593;28;20055;-72
2023/07/01 03:56:56;;;;;;;88.88;85.00;;;;;;;24.49;38.54;100414.88;5094984;28;20375;-72
2023/07/01 03:59:21;;;;;;;87.88;83.88;;;;;;;24.46;38.77;100412.81;5097310;28;20036;-74
2023/07/01 04:01:46;;;;;;;88.63;84.78;;;;;;;24.44;38.57;100415.06;5095946;28;20563;-72
2023/07/01 04:04:12;;;;;;;88.18;84.38;;;;;;;24.42;38.68;100409.09;5095417;28;20032;-72
2023/07/01 04:06:38;;;;;;;91.18;86.78;;;;;;;24.41;38.81;100408.28;5095595;28;20074;-72
2023/07/01 04:09:04;;;;;;;92.80;88.80;;;;;;;24.40;38.88;100414.16;5096793;28;20472;-72
2023/07/01 04:11:31;;;;;;;88.25;84.35;;;;;;;24.39;39.05;100407.00;5095443;28;20082;-72
2023/07/01 04:13:57;;;;;;;88.18;84.35;;;;;;;24.37;39.00;100401.84;5097231;28;20063;-72
2023/07/01 04:16:23;;;;;;;87.55;83.72;;;;;;;24.35;39.33;100389.53;5095471;28;20079;-74
2023/07/01 04:18:49;;;;;;;90.75;86.80;;;;;;;24.34;39.56;100393.44;5096647;28;20032;-72
2023/07/01 04:21:14;;;;;;;90.07;85.97;;;;;;;24.33;39.10;100383.56;5096561;28;20039;-72
2023/07/01 04:23:39;;;;;;;90.07;85.97;;;;;;;24.31;39.27;100380.34;5096781;28;20408;-72
2023/07/01 04:26:06;;;;;;;89.05;85.05;;;;;;;24.30;39.55;100392.53;5096502;28;20523;-71
2023/07/01 04:28:31;;;;;;;86.55;82.75;;;;;;;24.27;39.22;100383.00;5095271;28;20119;-72
2023/07/01 04:30:57;;;;;;;87.00;83.22;;;;;;;24.26;39.70;100377.81;5061828;28;20065;-71
2023/07/01 04:33:22;;;;;;;87.22;83.40;;;;;;;24.24;39.45;100372.66;5096355;28;20119;-72
2023/07/01 04:35:48;;;;;;;88.75;84.75;;;;;;;24.24;39.86;100380.91;5095098;28;20115;-72
2023/07/01 04:38:13;;;;;;;88.18;84.28;;;;;;;24.22;40.03;100371.34;5095679;28;20138;-72
2023/07/01 04:40:38;;;;;;;94.28;90.10;;;;;;;24.20;39.56;100371.72;5095871;28;20028;-72
2023/07/01 04:43:04;;;;;;;88.05;84.20;;;;;;;24.17;39.97;100366.88;5096266;28;20120;-72
2023/07/01 04:45:33;;;;;;;88.85;84.97;;;;;;;24.16;39.95;100363.28;5096083;28;20032;-72
2023/07/01 04:47:58;;;;;;;85.78;82.03;;;;;;;24.15;40.06;100367.22;5096415;28;20032;-72
2023/07/01 04:50:24;;;;;;;91.43;87.43;;;;;;;24.13;40.16;100364.00;5096085;28;20422;-72
2023/07/01 04:52:49;;;;;;;87.93;84.10;;;;;;;24.10;40.24;100356.41;5094641;28;20054;-72
2023/07/01 04:55:15;;;;;;;85.03;81.30;;;;;;;24.09;40.31;100362.25;5094700;28;20495;-72
2023/07/01 04:57:40;;;;;;;87.70;83.80;;;;;;;24.07;40.44;100365.38;5096242;28;20028;-72
2023/07/01 05:00:09;;;;;;;85.35;81.60;;;;;;;24.06;40.46;100363.75;5094467;28;20113;-72
2023/07/01 05:02:34;;;;;;;87.70;83.88;;;;;;;24.04;40.10;100365.25;5096260;28;20123;-73
2023/07/01 05:05:00;;;;;;;87.10;83.18;;;;;;;24.03;40.12;100358.91;5096038;28;20122;-74
2023/07/01 05:07:25;;;;;;;87.07;83.28;;;;;;;24.01;40.21;100360.41;5096181;28;20089;-73
2023/07/01 05:09:51;;;;;;;84.95;81.20;;;;;;;24.00;40.68;100362.38;5095017;28;20032;-73
2023/07/01 05:12:16;;;;;;;87.10;83.00;;;;;;;23.98;40.36;100353.63;5094462;28;20424;-73
2023/07/01 05:14:42;;;;;;;85.22;81.43;;;;;;;23.97;40.71;100354.78;5096025;28;20032;-73
2023/07/01 05:17:08;;;;;;;86.30;82.53;;;;;;;23.96;40.48;100351.22;5093936;28;20055;-73
2023/07/01 05:19:34;;;;;;;85.45;81.47;;;;;;;23.94;40.90;100353.53;5096103;28;20028;-73
2023/07/01 05:21:59;;;;;;;86.65;82.70;;;;;;;23.94;40.64;100355.47;5093950;28;20039;-73
2023/07/01 05:24:25;;;;;;;88.30;83.78;;;;;;;23.92;40.62;100338.47;5095878;28;20038;-73
2023/07/01 05:26:51;;;;;;;86.78;82.85;;;;;;;23.91;40.67;100351.44;5094910;28;20098;-73
2023/07/01 05:29:24;;;;;;;88.45;84.55;;;;;;;23.89;41.16;100341.88;5094058;28;20086;-73
2023/07/01 05:31:50;;;;;;;88.72;84.78;;;;;;;23.87;40.75;100344.19;5095521;28;20066;-74
2023/07/01 05:34:16;;;;;;;88.15;84.18;;;;;;;23.86;40.76;100348.09;5095172;28;20040;-73
2023/07/01 05:36:42;;;;;;;86.15;82.32;;;;;;;23.84;41.01;100342.94;5095145;28;20032;-76
2023/07/01 05:39:08;;;;;;;86.32;82.53;;;;;;;23.84;41.41;100345.69;5094047;28;20036;-74
2023/07/01 05:41:33;;;;;;;87.63;83.80;;;;;;;23.81;41.01;100338.06;5094927;28;20039;-76
2023/07/01 05:43:59;;;;;;;84.43;80.63;;;;;;;23.81;41.37;100334.50;5095492;28;20028;-73
2023/07/01 05:46:26;;;;;;;83.97;80.28;;;;;;;23.80;41.09;100338.44;5093846;28;20028;-73
2023/07/01 05:48:51;;;;;;;87.13;83.22;;;;;;;23.78;40.97;100335.22;5095162;28;20049;-73
2023/07/01 05:51:17;;;;;;;87.35;83.47;;;;;;;23.77;41.50;100328.09;5094843;28;20380;-73
2023/07/01 05:53:45;;;;;;;87.88;83.93;;;;;;;23.76;41.42;100338.28;5093537;28;20032;-74
2023/07/01 05:56:10;;;;;;;85.65;81.82;;;;;;;23.74;41.10;100333.13;5095096;28;20032;-74
2023/07/01 05:58:36;;;;;;;84.00;80.18;;;;;;;23.73;41.57;100334.25;5093367;28;20123;-73
2023/07/01 06:01:02;;;;;;;84.70;81.00;;;;;;;23.73;41.48;100333.47;5094245;28;20040;-73
2023/07/01 06:03:27;;;;;;;84.80;81.00;;;;;;;23.70;41.64;100326.66;5094636;28;20044;-73
2023/07/01 06:05:53;;;;;;;87.93;83.72;;;;;;;23.69;41.69;100330.56;5093552;28;20024;-74
2023/07/01 06:08:18;;;;;;;85.20;81.50;;;;;;;23.67;41.41;100326.53;5094580;28;20028;-74
2023/07/01 06:10:43;;;;;;;90.90;86.90;;;;;;;23.66;41.56;100320.22;5093904;28;20029;-74
2023/07/01 06:13:09;;;;;;;83.78;80.15;;;;;;;23.65;41.76;100321.34;5094551;28;20523;-74
2023/07/01 06:15:34;;;;;;;85.00;81.22;;;;;;;23.64;41.91;100325.28;5094201;28;20028;-76
2023/07/01 06:18:00;;;;;;;83.00;79.28;;;;;;;23.62;41.93;100319.28;5094277;28;20028;-73
2023/07/01 06:20:25;;;;;;;84.57;80.88;;;;;;;23.61;42.07;100317.69;5092368;28;20067;-74
2023/07/01 06:22:50;;;;;;;84.97;81.18;;;;;;;23.61;41.67;100323.19;5093201;28;20464;-74
2023/07/01 06:25:16;;;;;;;84.40;80.70;;;;;;;23.60;42.07;100324.34;5094520;28;20063;-73
2023/07/01 06:27:41;;;;;;;84.07;80.38;;;;;;;23.58;41.80;100321.09;5092878;28;20422;-73
2023/07/01 06:30:07;;;;;;;85.28;81.57;;;;;;;23.57;42.03;100325.03;5094146;28;20063;-73
2023/07/01 06:32:32;;;;;;;84.13;80.43;;;;;;;23.57;42.09;100324.22;5094332;28;20032;-74
2023/07/01 06:34:58;;;;;;;83.28;79.57;;;;;;;23.55;41.86;100328.09;5094228;28;20464;-73
2023/07/01 06:37:23;;;;;;;84.90;81.20;;;;;;;23.54;41.96;100326.50;5093998;28;20044;-73
2023/07/01 06:39:49;;;;;;;86.25;82.45;;;;;;;23.54;41.97;100317.44;5093052;28;20039;-73
2023/07/01 06:42:14;;;;;;;82.63;79.03;;;;;;;23.52;42.05;100312.25;5094220;28;20445;-73
2023/07/01 06:44:39;;;;;;;85.70;81.93;;;;;;;23.51;42.30;100316.16;5093604;28;20036;-74
2023/07/01 06:47:05;;;;;;;82.30;78.63;;;;;;;23.50;42.09;100320.06;5093188;28;20089;-73
2023/07/01 06:49:31;;;;;;;83.47;79.70;;;;;;;23.49;42.60;100320.41;5092627;28;20036;-72
2023/07/01 06:51:57;;;;;;;83.25;79.55;;;;;;;23.48;42.25;100316.03;5093861;28;20461;-72
2023/07/01 06:54:22;;;;;;;82.00;78.30;;;;;;;23.45;42.52;100317.50;5092656;28;20058;-72
2023/07/01 06:56:48;;;;;;;82.40;78.70;;;;;;;23.46;42.18;100315.56;5092482;28;20055;-73
2023/07/01 06:59:13;;;;;;;83.22;79.32;;;;;;;23.45;42.45;100322.22;5092227;28;20032;-72
2023/07/01 07:01:39;;;;;;;87.78;83.55;;;;;;;23.43;42.77;100314.28;5093324;28;20502;-75
2023/07/01 07:04:06;;;;;;;84.35;80.35;;;;;;;23.43;42.37;100319.78;5093633;28;20036;-72
2023/07/01 07:06:31;;;;;;;82.35;78.65;;;;;;;23.42;42.43;100323.72;5093590;28;20051;-72
2023/07/01 07:08:56;;;;;;;85.88;81.97;;;;;;;23.41;42.54;100322.13;5093447;28;20066;-72
2023/07/01 07:11:22;;;;;;;83.25;79.55;;;;;;;23.40;42.86;100312.22;5092341;28;20526;-73
2023/07/01 07:13:47;;;;;;;85.03;81.22;;;;;;;23.40;43.02;100312.22;5093459;28;20035;-73
2023/07/01 07:16:13;;;;;;;82.13;78.50;;;;;;;23.39;42.66;100307.06;5094055;28;20028;-73
2023/07/01 07:18:38;;;;;;;79.88;76.35;;;;;;;23.37;42.65;100306.59;5092188;28;20427;-73
2023/07/01 07:21:04;;;;;;;86.07;82.18;;;;;;;23.37;43.06;100310.13;5092025;28;20024;-72
2023/07/01 07:23:29;;;;;;;82.70;79.00;;;;;;;23.37;42.56;100303.84;5093305;28;20032;-74
2023/07/01 07:25:55;;;;;;;83.18;79.38;;;;;;;23.36;42.66;100307.72;5094237;28;20059;-74
2023/07/01 07:28:20;;;;;;;82.65;78.95;;;;;;;23.36;42.67;100305.78;5094275;28;20028;-74
2023/07/01 07:30:45;;;;;;;82.22;78.55;;;;;;;23.33;42.86;100301.75;5093502;28;20411;-73
2023/07/01 07:33:11;;;;;;;82.63;78.95;;;;;;;23.33;43.07;100304.53;5097150;28;20032;-73
2023/07/01 07:35:36;;;;;;;81.80;78.20;;;;;;;23.33;42.90;100301.75;5096473;28;20039;-73
2023/07/01 07:38:02;;;;;;;83.47;79.57;;;;;;;23.32;42.96;100305.66;5096948;28;20028;-74
2023/07/01 07:40:27;;;;;;;81.40;77.80;;;;;;;23.32;42.74;100297.38;5096296;28;20054;-74
2023/07/01 07:42:53;;;;;;;83.60;79.80;;;;;;;23.30;42.83;100298.88;5095968;28;20035;-74
2023/07/01 07:45:20;;;;;;;81.72;77.97;;;;;;;23.29;43.25;100294.50;5096422;28;20024;-74
2023/07/01 07:47:46;;;;;;;86.10;82.28;;;;;;;23.28;43.18;100290.13;5097490;28;20047;-74
2023/07/01 07:50:12;;;;;;;82.75;79.03;;;;;;;23.28;42.85;100298.38;5078919;28;20024;-74
2023/07/01 07:52:37;;;;;;;82.10;78.40;;;;;;;23.27;43.23;100288.53;5097072;28;20062;-74
2023/07/01 07:55:03;;;;;;;82.65;78.95;;;;;;;23.27;43.09;100288.53;5095715;28;20055;-74
2023/07/01 07:57:28;;;;;;;83.05;79.40;;;;;;;23.25;42.79;100291.59;5096519;28;20032;-74
2023/07/01 07:59:53;;;;;;;80.10;76.50;;;;;;;23.26;42.96;100295.19;5096582;28;20028;-74
2023/07/01 08:02:19;;;;;;;79.07;75.57;;;;;;;23.24;43.49;100294.72;5095405;28;20044;-74
2023/07/01 08:04:44;;;;;;;81.15;77.47;;;;;;;23.24;43.48;100289.22;5097072;28;20034;-76
2023/07/01 08:07:10;;;;;;;81.97;78.18;;;;;;;23.24;43.23;100289.22;5096661;28;20036;-77
2023/07/01 08:09:37;;;;;;;80.57;76.88;;;;;;;23.24;43.22;100290.00;5095437;28;20050;-75
2023/07/01 08:12:03;;;;;;;83.30;79.60;;;;;;;23.24;43.06;100287.25;5096620;28;20551;-75
2023/07/01 08:14:29;;;;;;;81.38;77.78;;;;;;;23.23;43.03;100288.38;5096602;28;20051;-74
2023/07/01 08:16:56;;;;;;;82.20;78.50;;;;;;;23.22;43.61;100289.53;5096429;28;20054;-74
2023/07/01 08:19:22;;;;;;;80.68;76.97;;;;;;;23.22;43.11;100284.03;5096960;28;20035;-74
2023/07/01 08:21:47;;;;;;;82.40;78.80;;;;;;;23.22;43.71;100283.22;5096648;28;20024;-77
2023/07/01 08:24:14;;;;;;;79.63;76.13;;;;;;;23.22;43.45;100291.50;5096181;28;20032;-74
2023/07/01 08:26:39;;;;;;;81.07;77.47;;;;;;;23.21;43.65;100293.44;5095302;28;20105;-74
2023/07/01 08:29:06;;;;;;;81.68;77.97;;;;;;;23.21;43.68;100287.94;5094772;28;20032;-75
2023/07/01 08:31:32;;;;;;;81.45;77.85;;;;;;;23.21;43.50;100289.88;5096217;28;20036;-74
2023/07/01 08:33:58;;;;;;;82.53;78.82;;;;;;;23.20;43.44;100277.25;5096184;28;20086;-75
2023/07/01 08:36:24;;;;;;;81.68;78.00;;;;;;;23.20;43.84;100286.31;5095071;28;20031;-75
2023/07/01 08:38:50;;;;;;;81.65;77.95;;;;;;;23.20;43.66;100285.50;5095744;28;20036;-75
2023/07/01 08:41:17;;;;;;;82.65;78.95;;;;;;;23.20;43.85;100277.25;5095750;28;20042;-73
2023/07/01 08:43:47;;;;;;;81.97;78.22;;;;;;;23.18;43.70;100277.56;5095307;28;20067;-73
2023/07/01 08:46:15;;;;;;;83.10;79.30;;;;;;;23.19;43.91;100290.22;5095913;28;20074;-72
2023/07/01 08:48:47;;;;;;;82.53;78.85;;;;;;;23.19;44.08;100281.16;5094794;28;20131;-72
2023/07/01 08:51:25;;;;;;;80.72;77.13;;;;;;;23.19;43.82;100281.16;5096051;28;20065;-72
2023/07/01 08:53:51;;;;;;;79.20;75.65;;;;;;;23.18;43.99;100285.84;5096092;28;20032;-74
2023/07/01 08:56:21;;;;;;;81.90;78.25;;;;;;;23.18;44.05;100285.84;5094233;28;20124;-72
2023/07/01 08:58:47;;;;;;;82.55;78.85;;;;;;;23.18;44.01;100283.09;5094179;28;20511;-71
2023/07/01 09:01:13;;;;;;;81.70;77.78;;;;;;;23.18;44.18;100280.31;5095848;28;20044;-76
2023/07/01 09:03:39;;;;;;;82.00;78.40;;;;;;;23.18;44.62;100283.09;5093997;28;20077;-70
2023/07/01 09:06:07;;;;;;;83.97;80.18;;;;;;;23.18;45.09;100283.09;5077306;28;20032;-71
2023/07/01 09:08:38;;;;;;;80.60;76.90;;;;;;;23.19;44.79;100283.91;5094631;28;20040;-71
2023/07/01 09:11:14;;;;;;;84.90;81.00;;;;;;;23.19;45.18;100281.94;5094939;28;20036;-72
2023/07/01 09:13:39;;;;;;;81.28;77.68;;;;;;;23.19;45.18;100284.72;5095343;28;20465;-71
2023/07/01 09:16:04;;;;;;;83.03;79.28;;;;;;;23.19;45.04;100276.44;5095908;28;20136;-76
2023/07/01 09:18:30;;;;;;;82.47;78.82;;;;;;;23.21;45.58;100281.59;5077868;28;20036;-77
2023/07/01 09:20:57;;;;;;;81.75;77.88;;;;;;;23.22;46.36;100278.50;5095250;28;20067;-86
2023/07/01 09:23:28;;;;;;;80.78;77.20;;;;;;;23.23;46.48;100277.34;5094196;28;20024;-81
2023/07/01 09:26:17;;;;;;;81.35;77.75;;;;;;;23.25;47.11;100279.78;5095287;28;20028;-76
2023/07/01 09:28:47;;;;;;;81.10;77.45;;;;;;;23.24;47.27;100279.00;5095529;28;20122;-76
2023/07/01 09:31:15;;;;;;;81.80;78.10;;;;;;;23.24;48.07;100276.22;5095479;28;20032;-78
2023/07/01 09:33:55;;;;;;;81.43;77.82;;;;;;;23.24;48.76;100276.22;5095203;28;20024;-74
2023/07/01 09:36:25;;;;;;;82.72;79.03;;;;;;;23.24;49.59;100276.22;5095071;28;20036;-70
2023/07/01 09:38:52;;;;;;;80.45;76.85;;;;;;;23.25;49.49;100266.81;5094983;28;20034;-70
2023/07/01 09:41:24;;;;;;;81.15;77.55;;;;;;;23.28;50.02;100265.31;5093788;28;20111;-71
2023/07/01 09:43:50;;;;;;;80.25;76.75;;;;;;;23.28;49.98;100268.91;5094908;28;20032;-69
2023/07/01 09:46:16;;;;;;;81.75;77.75;;;;;;;23.30;49.86;100271.31;5095038;28;20070;-74
2023/07/01 09:48:55;;;;;;;78.82;75.35;;;;;;;23.29;49.44;100272.47;5094996;28;20032;-68
2023/07/01 09:51:24;;;;;;;78.43;74.97;;;;;;;23.29;49.57;100269.72;5095344;28;20483;-72
2023/07/01 09:53:49;;;;;;;81.13;77.53;;;;;;;23.29;50.19;100270.50;5093057;28;20032;-67
2023/07/01 09:56:16;;;;;;;79.15;75.65;;;;;;;23.29;50.06;100266.94;5094779;28;20023;-69
2023/07/01 09:58:43;;;;;;;79.50;76.00;;;;;;;23.29;50.62;100264.19;5094454;28;20028;-71
2023/07/01 10:01:16;;;;;;;79.63;76.10;;;;;;;23.29;50.82;100267.75;5094116;28;20056;-71
2023/07/01 10:03:42;;;;;;;79.57;76.07;;;;;;;23.31;50.34;100270.97;5094822;28;20040;-69
2023/07/01 10:06:09;;;;;;;81.25;77.55;;;;;;;23.30;50.23;100263.03;5094654;28;20102;-70
2023/07/01 10:08:34;;;;;;;78.35;74.88;;;;;;;23.31;50.04;100265.47;5093977;28;20040;-70
2023/07/01 10:11:14;;;;;;;82.88;79.13;;;;;;;23.32;50.05;100275.31;5093354;28;20517;-70
2023/07/01 10:13:49;;;;;;;80.05;76.53;;;;;;;23.32;50.16;100271.78;5094604;28;20028;-70
2023/07/01 10:16:16;;;;;;;82.93;79.22;;;;;;;23.31;49.93;100261.91;5094018;28;20040;-71
2023/07/01 10:18:41;;;;;;;79.43;75.93;;;;;;;23.32;49.72;100260.75;5093002;28;20078;-72
2023/07/01 10:21:22;;;;;;;84.03;80.25;;;;;;;23.30;49.62;100261.06;5094331;28;20028;-72
2023/07/01 10:23:48;;;;;;;81.63;78.03;;;;;;;23.32;49.83;100255.25;5094481;28;20047;-72
2023/07/01 10:26:46;;;;;;;82.10;78.40;;;;;;;23.31;49.69;100250.88;5094042;28;20120;-71
2023/07/01 10:29:27;;;;;;;82.88;79.07;;;;;;;23.32;49.39;100253.28;5088396;28;20093;-71
2023/07/01 10:32:13;;;;;;;81.60;78.00;;;;;;;23.29;49.28;100248.47;5094346;28;20104;-73
2023/07/01 10:34:54;;;;;;;80.38;76.68;;;;;;;23.30;49.08;100254.78;5093862;28;20032;-71
2023/07/01 10:37:25;;;;;;;80.43;76.82;;;;;;;23.30;49.04;100260.28;5093699;28;20016;-71
2023/07/01 10:39:51;;;;;;;77.75;74.25;;;;;;;23.29;48.86;100248.47;5094231;28;20024;-71
2023/07/01 10:42:33;;;;;;;81.10;77.40;;;;;;;23.29;48.86;100253.97;5093858;28;20036;-71
2023/07/01 10:45:10;;;;;;;81.55;77.78;;;;;;;23.31;49.84;100248.13;5092993;28;20086;-69
2023/07/01 10:47:46;;;;;;;78.23;74.63;;;;;;;23.33;49.60;100251.31;5093365;28;20539;-67
2023/07/01 10:50:14;;;;;;;83.82;79.75;;;;;;;23.32;49.73;100250.53;5092843;28;20607;-70
2023/07/01 10:52:58;;;;;;;79.00;75.30;;;;;;;23.34;50.45;100241.94;5093764;28;20024;-70
2023/07/01 10:55:36;;;;;;;79.20;75.60;;;;;;;23.36;50.87;100244.31;5093346;28;20270;-70
2023/07/01 10:58:17;;;;;;;80.15;76.53;;;;;;;23.37;50.82;100243.19;5092000;28;20032;-73
2023/07/01 11:00:43;;;;;;;78.50;74.95;;;;;;;23.38;50.51;100242.03;5093724;28;20063;-70
2023/07/01 11:03:42;;;;;;;81.32;77.43;;;;;;;23.39;50.89;100247.22;5093273;28;20036;-70
2023/07/01 11:06:11;;;;;;;84.43;80.32;;;;;;;23.40;50.64;100242.50;5092782;28;20032;-70
2023/07/01 11:08:48;;;;;;;84.10;80.13;;;;;;;23.42;50.96;100245.72;5093349;28;20139;-70
2023/07/01 11:11:25;;;;;;;85.03;81.05;;;;;;;23.43;50.23;100244.56;5093288;28;20036;-71